High Point, North Carolina
Current Conditions -  °F | °C
As of 10:54 PM on Saturday 22 Nov 2014 (Local Time) from KGSO Reporting Station
Smoke Smoke  
Wind Chill: 36°   Ceiling: Unl
Heat Index: 36°   Visibility: 6mi
Dew Point: 21°   Wind: 3mph
Humidity: 55%   Direction: 210°SSW
Pressure: 30.31"   Gusts: NA
Location:  35.95°N, 80°W
Report Text: KGSO 230354Z 21003KT 6SM FU FEW070 02/M06 A3031 RMK AO2 SLP269 T00221061
Loading
Personal Weather Stations






























Interactive Weather Map New forecast layout! Learn more

10-Day Weather Forecast

Advertisements
Track Severe Weather on mobile